Seal Rock, Oregon
Current Conditions -  °F | °C
As of 8:15 AM on Friday 21 Nov 2014 (Local Time) from KONP Reporting Station
Light Rain Light Rain  
Wind Chill: 52°   Ceiling: 1800
Heat Index: 52°   Visibility: 10mi
Dew Point: 50°   Wind: 9mph
Humidity: 94%   Direction: 160°SSE
Pressure: 29.81"   Gusts: 18mph
Location:  44.49°N, 124.08°W
Report Text: KONP 211615Z AUTO 16008G16KT 10SM -RA SCT005 OVC018 11/10 A2981 RMK AO2 P0002
Loading
Personal Weather Stations






























Interactive Weather Map New forecast layout! Learn more

10-Day Weather Forecast

Advertisements
Track Severe Weather on mobile